createdAt,value
2018-07-08T00:00:00.152Z,0.00
2018-07-08T00:01:00.157Z,0.00
2018-07-08T00:02:00.148Z,0.00
2018-07-08T00:03:00.149Z,0.00
2018-07-08T00:04:00.157Z,0.00
2018-07-08T00:05:00.837Z,0.00
2018-07-08T00:06:00.155Z,0.00
2018-07-08T00:07:00.154Z,0.00
2018-07-08T00:08:00.837Z,0.00
2018-07-08T00:09:00.838Z,0.00
2018-07-08T00:10:00.151Z,0.00
2018-07-08T00:11:00.164Z,0.00
2018-07-08T00:12:00.841Z,0.00
2018-07-08T00:13:00.837Z,0.00
2018-07-08T00:14:00.156Z,0.00
2018-07-08T00:15:00.845Z,0.00
2018-07-08T00:16:00.838Z,0.00
2018-07-08T00:17:00.171Z,0.00
2018-07-08T00:18:00.167Z,0.00
2018-07-08T00:19:00.839Z,0.00
2018-07-08T00:20:00.171Z,0.00
2018-07-08T00:21:00.176Z,0.00
2018-07-08T00:22:00.175Z,0.00
2018-07-08T00:23:00.841Z,0.00
2018-07-08T00:24:00.176Z,0.00
2018-07-08T00:25:00.174Z,0.00
2018-07-08T00:26:00.182Z,0.00
2018-07-08T00:27:00.845Z,0.00
2018-07-08T00:28:00.183Z,0.00
2018-07-08T00:29:00.174Z,0.00
2018-07-08T00:30:00.840Z,0.00
2018-07-08T00:31:00.850Z,0.00
2018-07-08T00:32:00.183Z,0.00
2018-07-08T00:33:00.180Z,0.00
2018-07-08T00:34:00.844Z,0.00
2018-07-08T00:35:00.179Z,0.00
2018-07-08T00:36:00.185Z,0.00
2018-07-08T00:37:00.191Z,0.00
2018-07-08T00:38:00.190Z,0.00
2018-07-08T00:39:00.187Z,0.00
2018-07-08T00:40:00.187Z,0.00
2018-07-08T00:41:00.186Z,0.00
2018-07-08T00:42:00.186Z,0.00
2018-07-08T00:43:00.186Z,0.00
2018-07-08T00:44:00.185Z,0.00
2018-07-08T00:45:00.189Z,0.00
2018-07-08T00:46:00.193Z,0.00
2018-07-08T00:47:00.191Z,0.00
2018-07-08T00:48:00.195Z,0.00
2018-07-08T00:49:00.192Z,0.00
2018-07-08T00:50:00.190Z,0.00
2018-07-08T00:51:00.193Z,0.00
2018-07-08T00:52:00.192Z,0.00
2018-07-08T00:53:00.192Z,0.00
2018-07-08T00:54:00.194Z,0.00
2018-07-08T00:55:00.200Z,0.00
2018-07-08T00:56:00.197Z,0.00
2018-07-08T00:57:00.206Z,0.00
2018-07-08T00:58:00.854Z,0.00
2018-07-08T00:59:00.197Z,0.00
2018-07-08T01:00:00.196Z,0.00
2018-07-08T01:01:00.204Z,0.00
2018-07-08T01:02:00.854Z,0.00
2018-07-08T01:03:00.851Z,0.00
2018-07-08T01:04:00.853Z,0.00
2018-07-08T01:05:00.852Z,0.00
2018-07-08T01:06:00.193Z,0.00
2018-07-08T01:07:00.185Z,0.00
2018-07-08T01:08:00.197Z,0.00
2018-07-08T01:09:00.201Z,0.00
2018-07-08T01:10:00.195Z,0.00
2018-07-08T01:11:00.189Z,0.00
2018-07-08T01:12:00.189Z,0.00
2018-07-08T01:13:00.190Z,0.00
2018-07-08T01:14:00.190Z,0.00
2018-07-08T01:15:00.190Z,0.00
2018-07-08T01:16:00.191Z,0.00
2018-07-08T01:17:00.187Z,0.00
2018-07-08T01:18:00.194Z,0.00
2018-07-08T01:19:00.190Z,0.00
2018-07-08T01:20:00.192Z,0.00
2018-07-08T01:21:00.193Z,0.00
2018-07-08T01:22:00.194Z,0.00
2018-07-08T01:23:00.191Z,0.00
2018-07-08T01:24:00.194Z,0.00
2018-07-08T01:25:00.193Z,0.00
2018-07-08T01:26:00.195Z,0.00
2018-07-08T01:27:00.195Z,0.00
2018-07-08T01:28:00.197Z,0.00
2018-07-08T01:29:00.194Z,0.00
2018-07-08T01:30:00.192Z,0.00
2018-07-08T01:31:00.195Z,0.00
2018-07-08T01:32:00.189Z,0.00
2018-07-08T01:33:00.197Z,0.00
2018-07-08T01:34:00.191Z,0.00
2018-07-08T01:35:00.196Z,0.00
2018-07-08T01:36:00.194Z,0.00
2018-07-08T01:37:00.201Z,0.00
2018-07-08T01:38:00.196Z,0.00
2018-07-08T01:39:00.192Z,0.00
2018-07-08T01:40:00.193Z,0.00
2018-07-08T01:41:00.194Z,0.00
2018-07-08T01:42:00.192Z,0.00
2018-07-08T01:43:00.192Z,0.00
2018-07-08T01:44:00.193Z,0.00
2018-07-08T01:45:00.190Z,0.00
2018-07-08T01:46:00.194Z,0.00
2018-07-08T01:47:00.195Z,0.00
2018-07-08T01:48:00.193Z,0.00
2018-07-08T01:49:00.195Z,0.00
2018-07-08T01:50:00.196Z,0.00
2018-07-08T01:51:00.199Z,0.00
2018-07-08T01:52:00.197Z,0.00
2018-07-08T01:53:00.201Z,0.00
2018-07-08T01:54:00.196Z,0.00
2018-07-08T01:55:00.200Z,0.00
2018-07-08T01:56:00.198Z,0.00
2018-07-08T01:57:00.203Z,0.00
2018-07-08T01:58:00.206Z,0.00
2018-07-08T01:59:00.201Z,0.00
2018-07-08T02:00:00.203Z,0.00
2018-07-08T02:01:00.202Z,0.00
2018-07-08T02:02:00.206Z,0.00
2018-07-08T02:03:00.187Z,0.00
2018-07-08T02:04:00.199Z,0.00
2018-07-08T02:05:00.188Z,0.00
2018-07-08T02:06:00.186Z,0.00
2018-07-08T02:07:00.245Z,0.00
2018-07-08T02:08:00.187Z,0.00
2018-07-08T02:09:00.187Z,0.00
2018-07-08T02:10:00.188Z,0.00
2018-07-08T02:11:00.188Z,0.00
2018-07-08T02:12:00.192Z,0.00
2018-07-08T02:13:00.187Z,0.00
2018-07-08T02:14:00.187Z,0.00
2018-07-08T02:15:00.196Z,0.00
2018-07-08T02:16:00.190Z,0.00
2018-07-08T02:17:00.188Z,0.00
2018-07-08T02:18:00.189Z,0.00
2018-07-08T02:19:00.188Z,0.00
2018-07-08T02:20:00.806Z,0.00
2018-07-08T02:21:00.190Z,0.00
2018-07-08T02:22:00.191Z,0.00
2018-07-08T02:23:00.191Z,0.00
2018-07-08T02:24:00.190Z,0.00
2018-07-08T02:25:00.805Z,0.00
2018-07-08T02:26:00.191Z,0.00
2018-07-08T02:27:00.191Z,0.00
2018-07-08T02:28:00.802Z,0.00
2018-07-08T02:29:00.193Z,0.00
2018-07-08T02:30:00.196Z,0.00
2018-07-08T02:31:00.192Z,0.00
2018-07-08T02:32:00.192Z,0.00
2018-07-08T02:33:00.805Z,0.00
2018-07-08T02:34:00.193Z,0.00
2018-07-08T02:35:00.200Z,0.00
2018-07-08T02:36:00.805Z,0.00
2018-07-08T02:37:00.196Z,0.00
2018-07-08T02:38:00.195Z,0.00
2018-07-08T02:39:00.807Z,0.00
2018-07-08T02:40:00.195Z,0.00
2018-07-08T02:41:00.196Z,0.00
2018-07-08T02:42:00.195Z,0.00
2018-07-08T02:43:00.199Z,0.00
2018-07-08T02:44:00.196Z,0.00
2018-07-08T02:45:00.196Z,0.00
2018-07-08T02:46:00.809Z,0.00
2018-07-08T02:47:00.196Z,0.00
2018-07-08T02:48:00.809Z,0.00
2018-07-08T02:49:00.195Z,0.00
2018-07-08T02:50:00.197Z,0.00
2018-07-08T02:51:00.201Z,0.00
2018-07-08T02:52:00.810Z,0.00
2018-07-08T02:53:00.195Z,0.00
2018-07-08T02:54:00.195Z,0.00
2018-07-08T02:55:00.200Z,0.00
2018-07-08T02:56:00.197Z,0.00
2018-07-08T02:57:00.197Z,0.00
2018-07-08T02:58:00.199Z,0.00
2018-07-08T02:59:00.192Z,0.00
2018-07-08T03:00:00.198Z,5.63
2018-07-08T03:01:00.192Z,5.63
2018-07-08T03:02:00.194Z,5.63
2018-07-08T03:03:00.195Z,5.63
2018-07-08T03:04:00.812Z,5.63
2018-07-08T03:05:00.202Z,5.63
2018-07-08T03:06:00.193Z,5.63
2018-07-08T03:07:00.196Z,5.63
2018-07-08T03:08:00.199Z,11.25
2018-07-08T03:09:00.198Z,11.25
2018-07-08T03:10:00.197Z,11.25
2018-07-08T03:11:00.813Z,11.25
2018-07-08T03:12:00.202Z,11.25
2018-07-08T03:13:00.200Z,11.25
2018-07-08T03:14:00.206Z,11.25
2018-07-08T03:15:00.202Z,16.88
2018-07-08T03:16:00.815Z,16.88
2018-07-08T03:17:00.202Z,16.88
2018-07-08T03:18:00.203Z,16.88
2018-07-08T03:19:00.188Z,16.88
2018-07-08T03:20:00.207Z,22.50
2018-07-08T03:21:00.214Z,22.50
2018-07-08T03:22:00.204Z,22.50
2018-07-08T03:23:00.211Z,22.50
2018-07-08T03:24:00.211Z,22.50
2018-07-08T03:25:00.190Z,22.50
2018-07-08T03:26:00.209Z,22.50
2018-07-08T03:27:00.194Z,28.13
2018-07-08T03:28:00.824Z,28.13
2018-07-08T03:29:00.189Z,33.75
2018-07-08T03:30:00.192Z,33.75
2018-07-08T03:31:00.190Z,33.75
2018-07-08T03:32:00.190Z,39.38
2018-07-08T03:33:00.184Z,45.00
2018-07-08T03:34:00.188Z,45.00
2018-07-08T03:35:00.188Z,50.63
2018-07-08T03:36:00.189Z,50.63
2018-07-08T03:37:00.189Z,56.25
2018-07-08T03:38:00.190Z,61.88
2018-07-08T03:39:00.187Z,61.88
2018-07-08T03:40:00.186Z,61.88
2018-07-08T03:41:00.189Z,67.50
2018-07-08T03:42:00.189Z,73.13
2018-07-08T03:43:00.188Z,78.75
2018-07-08T03:44:00.187Z,78.75
2018-07-08T03:45:00.187Z,84.38
2018-07-08T03:46:00.194Z,84.38
2018-07-08T03:47:00.186Z,95.63
2018-07-08T03:48:00.189Z,90.00
2018-07-08T03:49:00.184Z,90.00
2018-07-08T03:50:00.185Z,90.00
2018-07-08T03:51:00.186Z,95.63
2018-07-08T03:52:00.192Z,95.63
2018-07-08T03:53:00.185Z,95.63
2018-07-08T03:54:00.184Z,106.88
2018-07-08T03:55:00.184Z,101.25
2018-07-08T03:56:00.187Z,135.00
2018-07-08T03:57:00.184Z,146.25
2018-07-08T03:58:00.184Z,151.88
2018-07-08T03:59:00.186Z,157.50
2018-07-08T04:00:00.186Z,157.50
2018-07-08T04:01:00.184Z,151.88
2018-07-08T04:02:00.187Z,146.25
2018-07-08T04:03:00.178Z,140.63
2018-07-08T04:04:00.182Z,129.38
2018-07-08T04:05:00.181Z,146.25
2018-07-08T04:06:00.189Z,174.38
2018-07-08T04:07:00.183Z,168.75
2018-07-08T04:08:00.182Z,151.88
2018-07-08T04:09:00.181Z,140.63
2018-07-08T04:10:00.184Z,118.13
2018-07-08T04:11:00.183Z,118.13
2018-07-08T04:12:00.186Z,151.88
2018-07-08T04:13:00.183Z,123.75
2018-07-08T04:14:00.183Z,123.75
2018-07-08T04:15:00.183Z,129.38
2018-07-08T04:16:00.183Z,112.50
2018-07-08T04:17:00.183Z,106.88
2018-07-08T04:18:00.179Z,101.25
2018-07-08T04:19:00.181Z,95.63
2018-07-08T04:20:00.183Z,106.88
2018-07-08T04:21:00.183Z,95.63
2018-07-08T04:22:00.184Z,95.63
2018-07-08T04:23:00.183Z,95.63
2018-07-08T04:24:00.183Z,95.63
2018-07-08T04:25:00.183Z,90.00
2018-07-08T04:26:00.182Z,90.00
2018-07-08T04:27:00.187Z,95.63
2018-07-08T04:28:00.194Z,95.63
2018-07-08T04:29:00.182Z,101.25
2018-07-08T04:30:00.183Z,106.88
2018-07-08T04:31:00.182Z,106.88
2018-07-08T04:32:00.183Z,106.88
2018-07-08T04:33:00.185Z,112.50
2018-07-08T04:34:00.180Z,118.13
2018-07-08T04:35:00.192Z,123.75
2018-07-08T04:36:00.184Z,129.38
2018-07-08T04:37:00.183Z,135.00
2018-07-08T04:38:00.183Z,146.25
2018-07-08T04:39:00.187Z,157.50
2018-07-08T04:40:00.181Z,163.13
2018-07-08T04:41:00.187Z,168.75
2018-07-08T04:42:00.183Z,180.00
2018-07-08T04:43:00.190Z,180.00
2018-07-08T04:44:00.182Z,180.00
2018-07-08T04:45:00.189Z,185.63
2018-07-08T04:46:00.181Z,185.63
2018-07-08T04:47:00.184Z,185.63
2018-07-08T04:48:00.184Z,185.63
2018-07-08T04:49:00.184Z,180.00
2018-07-08T04:50:00.182Z,174.38
2018-07-08T04:51:00.183Z,180.00
2018-07-08T04:52:00.185Z,191.25
2018-07-08T04:53:00.186Z,191.25
2018-07-08T04:54:00.184Z,174.38
2018-07-08T04:55:00.184Z,168.75
2018-07-08T04:56:00.183Z,163.13
2018-07-08T04:57:00.184Z,163.13
2018-07-08T04:58:00.193Z,168.75
2018-07-08T04:59:00.185Z,168.75
2018-07-08T05:00:00.185Z,157.50
2018-07-08T05:01:00.238Z,157.50
2018-07-08T05:02:00.185Z,174.38
2018-07-08T05:03:00.185Z,202.50
2018-07-08T05:04:00.188Z,213.75
2018-07-08T05:05:00.183Z,191.25
2018-07-08T05:06:00.189Z,168.75
2018-07-08T05:07:00.186Z,185.63
2018-07-08T05:08:00.186Z,185.63
2018-07-08T05:09:00.185Z,163.13
2018-07-08T05:10:00.187Z,174.38
2018-07-08T05:11:00.186Z,168.75
2018-07-08T05:12:00.188Z,163.13
2018-07-08T05:13:00.186Z,146.25
2018-07-08T05:14:00.188Z,129.38
2018-07-08T05:15:00.190Z,118.13
2018-07-08T05:16:00.190Z,112.50
2018-07-08T05:17:00.188Z,112.50
2018-07-08T05:18:00.190Z,123.75
2018-07-08T05:19:00.187Z,140.63
2018-07-08T05:20:00.187Z,146.25
2018-07-08T05:21:00.189Z,146.25
2018-07-08T05:22:00.188Z,146.25
2018-07-08T05:23:00.188Z,146.25
2018-07-08T05:24:00.189Z,140.63
2018-07-08T05:25:00.190Z,135.00
2018-07-08T05:26:00.190Z,140.63
2018-07-08T05:27:00.188Z,146.25
2018-07-08T05:28:00.191Z,151.88
2018-07-08T05:29:00.191Z,151.88
2018-07-08T05:30:00.205Z,151.88
2018-07-08T05:31:00.200Z,157.50
2018-07-08T05:32:00.195Z,151.88
2018-07-08T05:33:02.923Z,151.88
2018-07-08T05:34:00.195Z,157.50
2018-07-08T05:35:00.193Z,146.25
2018-07-08T05:36:00.192Z,163.13
2018-07-08T05:37:00.193Z,180.00
2018-07-08T05:38:00.193Z,185.63
2018-07-08T05:39:00.194Z,163.13
2018-07-08T05:40:00.195Z,129.38
2018-07-08T05:41:00.196Z,129.38
2018-07-08T05:42:00.194Z,123.75
2018-07-08T05:43:00.195Z,123.75
2018-07-08T05:44:00.196Z,123.75
2018-07-08T05:45:00.199Z,123.75
2018-07-08T05:46:00.196Z,129.38
2018-07-08T05:47:00.198Z,140.63
2018-07-08T05:48:00.201Z,146.25
2018-07-08T05:49:00.197Z,151.88
2018-07-08T05:50:00.199Z,157.50
2018-07-08T05:51:00.199Z,157.50
2018-07-08T05:52:00.196Z,151.88
2018-07-08T05:53:00.198Z,157.50
2018-07-08T05:54:00.200Z,185.63
2018-07-08T05:55:00.198Z,247.50
2018-07-08T05:56:00.200Z,343.13
2018-07-08T05:57:00.201Z,376.88
2018-07-08T05:58:00.199Z,331.88
2018-07-08T05:59:00.200Z,281.25
2018-07-08T06:00:00.203Z,230.63
2018-07-08T06:01:00.203Z,241.88
2018-07-08T06:02:00.202Z,219.38
2018-07-08T06:03:00.202Z,202.50
2018-07-08T06:04:00.206Z,196.88
2018-07-08T06:05:00.204Z,191.25
2018-07-08T06:06:00.204Z,191.25
2018-07-08T06:07:00.204Z,185.63
2018-07-08T06:08:00.206Z,174.38
2018-07-08T06:09:00.204Z,168.75
2018-07-08T06:10:00.206Z,168.75
2018-07-08T06:11:00.206Z,168.75
2018-07-08T06:12:00.207Z,168.75
2018-07-08T06:13:00.210Z,185.63
2018-07-08T06:14:00.208Z,208.13
2018-07-08T06:15:00.208Z,219.38
2018-07-08T06:16:00.208Z,202.50
2018-07-08T06:17:00.211Z,180.00
2018-07-08T06:18:00.213Z,185.63
2018-07-08T06:19:00.210Z,196.88
2018-07-08T06:20:00.211Z,202.50
2018-07-08T06:21:00.213Z,202.50
2018-07-08T06:22:00.218Z,219.38
2018-07-08T06:23:00.213Z,225.00
2018-07-08T06:24:00.207Z,230.63
2018-07-08T06:25:00.211Z,241.88
2018-07-08T06:26:00.261Z,270.00
2018-07-08T06:27:00.218Z,281.25
2018-07-08T06:28:00.215Z,264.38
2018-07-08T06:29:00.216Z,236.25
2018-07-08T06:30:00.216Z,213.75
2018-07-08T06:31:00.212Z,208.13
2018-07-08T06:32:00.218Z,230.63
2018-07-08T06:33:00.217Z,264.38
2018-07-08T06:34:00.220Z,264.38
2018-07-08T06:35:00.217Z,258.75
2018-07-08T06:36:00.224Z,264.38
2018-07-08T06:37:00.220Z,258.75
2018-07-08T06:38:00.221Z,253.13
2018-07-08T06:39:00.218Z,247.50
2018-07-08T06:40:00.222Z,241.88
2018-07-08T06:41:00.218Z,230.63
2018-07-08T06:42:00.220Z,213.75
2018-07-08T06:43:00.221Z,208.13
2018-07-08T06:44:00.234Z,202.50
2018-07-08T06:45:00.226Z,202.50
2018-07-08T06:46:00.226Z,219.38
2018-07-08T06:47:00.225Z,247.50
2018-07-08T06:48:00.224Z,270.00
2018-07-08T06:49:00.228Z,264.38
2018-07-08T06:50:00.226Z,230.63
2018-07-08T06:51:00.232Z,208.13
2018-07-08T06:52:00.256Z,208.13
2018-07-08T06:53:00.226Z,185.63
2018-07-08T06:54:00.233Z,185.63
2018-07-08T06:55:00.231Z,196.88
2018-07-08T06:56:00.228Z,208.13
2018-07-08T06:57:00.224Z,241.88
2018-07-08T06:58:00.228Z,309.38
2018-07-08T06:59:00.229Z,388.13
2018-07-08T07:00:00.230Z,416.25
2018-07-08T07:01:00.231Z,455.63
2018-07-08T07:02:00.230Z,517.50
2018-07-08T07:03:00.231Z,523.13
2018-07-08T07:04:00.231Z,579.38
2018-07-08T07:05:00.230Z,641.25
2018-07-08T07:06:00.233Z,720.00
2018-07-08T07:07:00.239Z,708.75
2018-07-08T07:08:00.238Z,697.50
2018-07-08T07:09:00.236Z,658.13
2018-07-08T07:10:00.236Z,646.88
2018-07-08T07:11:00.236Z,646.88
2018-07-08T07:12:00.247Z,624.38
2018-07-08T07:13:00.242Z,624.38
2018-07-08T07:14:00.236Z,652.50
2018-07-08T07:15:00.239Z,607.50
2018-07-08T07:16:00.246Z,680.63
2018-07-08T07:17:00.247Z,703.13
2018-07-08T07:18:00.247Z,624.38
2018-07-08T07:19:00.249Z,607.50
2018-07-08T07:20:00.251Z,646.88
2018-07-08T07:21:00.255Z,697.50
2018-07-08T07:22:00.252Z,725.63
2018-07-08T07:23:00.311Z,798.75
2018-07-08T07:24:00.255Z,939.38
2018-07-08T07:25:00.316Z,922.50
2018-07-08T07:26:00.263Z,798.75
2018-07-08T07:27:00.272Z,759.38
2018-07-08T07:28:00.264Z,601.88
2018-07-08T07:29:00.269Z,562.50
2018-07-08T07:30:00.267Z,630.00
2018-07-08T07:31:00.278Z,635.63
2018-07-08T07:32:00.269Z,596.25
2018-07-08T07:33:00.280Z,545.63
2018-07-08T07:34:00.276Z,517.50
2018-07-08T07:35:00.281Z,534.38
2018-07-08T07:36:00.278Z,517.50
2018-07-08T07:37:00.309Z,489.38
2018-07-08T07:38:00.287Z,461.25
2018-07-08T07:39:00.290Z,444.38
2018-07-08T07:40:00.290Z,461.25
2018-07-08T07:41:00.294Z,478.13
2018-07-08T07:42:00.299Z,489.38
2018-07-08T07:43:00.300Z,523.13
2018-07-08T07:44:00.305Z,517.50
2018-07-08T07:45:00.306Z,461.25
2018-07-08T07:46:00.308Z,444.38
2018-07-08T07:47:00.308Z,455.63
2018-07-08T07:48:00.311Z,410.63
2018-07-08T07:49:00.318Z,399.38
2018-07-08T07:50:00.323Z,405.00
2018-07-08T07:51:00.319Z,405.00
2018-07-08T07:52:00.336Z,416.25
2018-07-08T07:53:00.324Z,450.00
2018-07-08T07:54:00.326Z,483.75
2018-07-08T07:55:00.333Z,511.88
2018-07-08T07:56:00.333Z,534.38
2018-07-08T07:57:00.335Z,562.50
2018-07-08T07:58:00.342Z,596.25
2018-07-08T07:59:00.352Z,618.75
2018-07-08T08:00:00.338Z,613.13
2018-07-08T08:01:00.344Z,686.25
2018-07-08T08:02:00.347Z,736.88
2018-07-08T08:03:00.352Z,675.00
2018-07-08T08:04:00.353Z,641.25
2018-07-08T08:05:00.372Z,658.13
2018-07-08T08:06:00.368Z,630.00
2018-07-08T08:07:00.370Z,579.38
2018-07-08T08:08:00.909Z,540.00
2018-07-08T08:09:00.380Z,517.50
2018-07-08T08:10:00.372Z,540.00
2018-07-08T08:11:00.375Z,590.63
2018-07-08T08:12:00.379Z,720.00
2018-07-08T08:13:00.382Z,810.00
2018-07-08T08:14:00.377Z,646.88
2018-07-08T08:15:00.388Z,641.25
2018-07-08T08:16:00.385Z,663.75
2018-07-08T08:17:00.389Z,658.13
2018-07-08T08:18:00.391Z,641.25
2018-07-08T08:19:00.391Z,714.38
2018-07-08T08:20:00.911Z,725.63
2018-07-08T08:21:00.416Z,680.63
2018-07-08T08:22:00.400Z,708.75
2018-07-08T08:23:00.402Z,663.75
2018-07-08T08:24:00.403Z,618.75
2018-07-08T08:25:00.409Z,613.13
2018-07-08T08:26:00.410Z,725.63
2018-07-08T08:27:00.416Z,849.38
2018-07-08T08:28:00.426Z,894.38
2018-07-08T08:29:00.429Z,703.13
2018-07-08T08:30:00.432Z,669.38
2018-07-08T08:31:00.433Z,697.50
2018-07-08T08:32:00.433Z,770.63
2018-07-08T08:33:00.437Z,1023.75
2018-07-08T08:34:00.443Z,1170.00
2018-07-08T08:35:00.449Z,984.38
2018-07-08T08:36:00.449Z,1035.00
2018-07-08T08:37:00.452Z,1659.38
2018-07-08T08:38:00.468Z,832.50
2018-07-08T08:39:00.468Z,753.75
2018-07-08T08:40:00.465Z,950.63
2018-07-08T08:41:00.463Z,995.63
2018-07-08T08:42:00.471Z,1051.88
2018-07-08T08:43:00.475Z,916.88
2018-07-08T08:44:00.480Z,950.63
2018-07-08T08:45:00.491Z,1687.50
2018-07-08T08:46:00.520Z,1749.38
2018-07-08T08:47:00.490Z,703.13
2018-07-08T08:48:00.494Z,551.25
2018-07-08T08:49:00.499Z,562.50
2018-07-08T08:50:00.503Z,725.63
2018-07-08T08:51:00.506Z,826.88
2018-07-08T08:52:00.511Z,618.75
2018-07-08T08:53:00.517Z,495.00
2018-07-08T08:54:00.519Z,506.25
2018-07-08T08:55:00.533Z,500.63
2018-07-08T08:56:00.530Z,427.50
2018-07-08T08:57:00.541Z,405.00
2018-07-08T08:58:00.537Z,427.50
2018-07-08T08:59:00.538Z,466.88
2018-07-08T09:00:00.548Z,472.50
2018-07-08T09:01:00.549Z,478.13
2018-07-08T09:02:00.553Z,607.50
2018-07-08T09:03:00.557Z,675.00
2018-07-08T09:04:00.563Z,703.13
2018-07-08T09:05:00.572Z,866.25
2018-07-08T09:06:00.572Z,483.75
2018-07-08T09:07:00.575Z,393.75
2018-07-08T09:08:00.579Z,371.25
2018-07-08T09:09:00.585Z,410.63
2018-07-08T09:10:00.587Z,450.00
2018-07-08T09:11:00.596Z,551.25
2018-07-08T09:12:00.598Z,646.88
2018-07-08T09:13:00.601Z,669.38
2018-07-08T09:14:00.607Z,680.63
2018-07-08T09:15:00.608Z,658.13
2018-07-08T09:16:00.615Z,573.75
2018-07-08T09:17:00.620Z,556.88
2018-07-08T09:18:00.622Z,517.50
2018-07-08T09:19:00.624Z,489.38
2018-07-08T09:20:00.626Z,478.13
2018-07-08T09:21:00.637Z,528.75
2018-07-08T09:22:00.636Z,635.63
2018-07-08T09:23:00.640Z,613.13
2018-07-08T09:24:00.712Z,601.88
2018-07-08T09:25:00.653Z,556.88
2018-07-08T09:26:00.652Z,517.50
2018-07-08T09:27:00.655Z,568.13
2018-07-08T09:28:00.660Z,562.50
2018-07-08T09:29:00.664Z,506.25
2018-07-08T09:30:00.665Z,489.38
2018-07-08T09:31:00.705Z,500.63
2018-07-08T09:32:00.676Z,511.88
2018-07-08T09:33:00.678Z,540.00
2018-07-08T09:34:00.683Z,579.38
2018-07-08T09:35:00.686Z,601.88
2018-07-08T09:36:00.691Z,663.75
2018-07-08T09:37:00.689Z,663.75
2018-07-08T09:38:00.692Z,630.00
2018-07-08T09:39:00.786Z,613.13
2018-07-08T09:40:00.702Z,669.38
2018-07-08T09:41:00.711Z,731.25
2018-07-08T09:42:00.712Z,720.00
2018-07-08T09:43:00.719Z,652.50
2018-07-08T09:44:00.719Z,658.13
2018-07-08T09:45:00.722Z,697.50
2018-07-08T09:46:00.810Z,652.50
2018-07-08T09:47:00.730Z,562.50
2018-07-08T09:48:00.733Z,568.13
2018-07-08T09:49:00.738Z,528.75
2018-07-08T09:50:00.742Z,523.13
2018-07-08T09:51:00.789Z,506.25
2018-07-08T09:52:00.749Z,483.75
2018-07-08T09:53:00.756Z,517.50
2018-07-08T09:54:00.756Z,556.88
2018-07-08T09:55:00.757Z,545.63
2018-07-08T09:56:00.766Z,641.25
2018-07-08T09:57:00.768Z,669.38
2018-07-08T09:58:00.824Z,697.50
2018-07-08T09:59:00.780Z,697.50
2018-07-08T10:00:00.786Z,669.38
2018-07-08T10:01:00.784Z,585.00
2018-07-08T10:02:00.787Z,618.75
2018-07-08T10:03:00.791Z,742.50
2018-07-08T10:04:00.797Z,787.50
2018-07-08T10:05:00.839Z,765.00
2018-07-08T10:06:00.802Z,736.88
2018-07-08T10:07:00.809Z,646.88
2018-07-08T10:08:00.810Z,607.50
2018-07-08T10:09:00.815Z,630.00
2018-07-08T10:10:00.818Z,669.38
2018-07-08T10:11:00.828Z,652.50
2018-07-08T10:12:00.828Z,686.25
2018-07-08T10:13:00.886Z,691.88
2018-07-08T10:14:00.976Z,720.00
2018-07-08T10:15:00.838Z,736.88
2018-07-08T10:16:00.843Z,720.00
2018-07-08T10:17:00.848Z,641.25
2018-07-08T10:18:00.852Z,556.88
2018-07-08T10:19:00.855Z,506.25
2018-07-08T10:20:00.925Z,500.63
2018-07-08T10:21:00.863Z,528.75
2018-07-08T10:22:00.868Z,646.88
2018-07-08T10:23:00.872Z,663.75
2018-07-08T10:24:00.874Z,579.38
2018-07-08T10:25:00.879Z,562.50
2018-07-08T10:26:00.884Z,601.88
2018-07-08T10:27:00.891Z,652.50
2018-07-08T10:28:00.899Z,573.75
2018-07-08T10:29:00.895Z,540.00
2018-07-08T10:30:00.908Z,528.75
2018-07-08T10:31:00.904Z,534.38
2018-07-08T10:32:00.908Z,489.38
2018-07-08T10:33:00.913Z,421.88
2018-07-08T10:34:00.915Z,393.75
2018-07-08T10:35:00.919Z,388.13
2018-07-08T10:36:00.926Z,427.50
2018-07-08T10:37:00.933Z,500.63
2018-07-08T10:38:00.935Z,573.75
2018-07-08T10:39:00.937Z,590.63
2018-07-08T10:40:00.940Z,585.00
2018-07-08T10:41:00.947Z,573.75
2018-07-08T10:42:00.947Z,534.38
2018-07-08T10:43:00.950Z,528.75
2018-07-08T10:44:00.956Z,545.63
2018-07-08T10:45:00.961Z,545.63
2018-07-08T10:46:00.964Z,618.75
2018-07-08T10:47:00.969Z,658.13
2018-07-08T10:48:00.973Z,601.88
2018-07-08T10:49:00.978Z,534.38
2018-07-08T10:50:01.033Z,551.25
2018-07-08T10:51:00.988Z,579.38
2018-07-08T10:52:00.986Z,556.88
2018-07-08T10:53:00.990Z,495.00
2018-07-08T10:54:00.996Z,444.38
2018-07-08T10:55:01.001Z,421.88
2018-07-08T10:56:01.006Z,410.63
2018-07-08T10:57:01.012Z,393.75
2018-07-08T10:58:01.015Z,382.50
2018-07-08T10:59:01.019Z,371.25
2018-07-08T11:00:01.024Z,376.88
2018-07-08T11:01:01.026Z,388.13
2018-07-08T11:02:01.032Z,393.75
2018-07-08T11:03:01.041Z,399.38
2018-07-08T11:04:01.042Z,388.13
2018-07-08T11:05:01.052Z,354.38
2018-07-08T11:06:01.050Z,337.50
2018-07-08T11:07:01.054Z,331.88
2018-07-08T11:08:01.057Z,309.38
2018-07-08T11:09:01.061Z,292.50
2018-07-08T11:10:01.066Z,286.88
2018-07-08T11:11:01.070Z,286.88
2018-07-08T11:12:01.104Z,281.25
2018-07-08T11:13:01.076Z,281.25
2018-07-08T11:14:01.082Z,275.63
2018-07-08T11:15:01.093Z,292.50
2018-07-08T11:16:01.093Z,281.25
2018-07-08T11:17:01.109Z,264.38
2018-07-08T11:18:01.106Z,236.25
2018-07-08T11:19:01.102Z,236.25
2018-07-08T11:20:01.108Z,241.88
2018-07-08T11:21:01.142Z,253.13
2018-07-08T11:22:01.115Z,258.75
2018-07-08T11:23:01.117Z,270.00
2018-07-08T11:24:01.127Z,270.00
2018-07-08T11:25:01.125Z,264.38
2018-07-08T11:26:01.128Z,264.38
2018-07-08T11:27:01.132Z,264.38
2018-07-08T11:28:01.134Z,264.38
2018-07-08T11:29:01.140Z,275.63
2018-07-08T11:30:01.149Z,281.25
2018-07-08T11:31:01.144Z,281.25
2018-07-08T11:32:01.149Z,281.25
2018-07-08T11:33:01.153Z,264.38
2018-07-08T11:34:01.156Z,253.13
2018-07-08T11:35:01.160Z,247.50
2018-07-08T11:36:01.168Z,247.50
2018-07-08T11:37:01.169Z,253.13
2018-07-08T11:38:01.170Z,264.38
2018-07-08T11:39:01.186Z,281.25
2018-07-08T11:40:01.179Z,303.75
2018-07-08T11:41:01.184Z,331.88
2018-07-08T11:42:01.186Z,360.00
2018-07-08T11:43:01.276Z,416.25
2018-07-08T11:44:01.191Z,478.13
2018-07-08T11:45:01.196Z,528.75
2018-07-08T11:46:01.234Z,562.50
2018-07-08T11:47:01.203Z,534.38
2018-07-08T11:48:01.206Z,478.13
2018-07-08T11:49:01.212Z,416.25
2018-07-08T11:50:01.272Z,371.25
2018-07-08T11:51:01.217Z,354.38
2018-07-08T11:52:01.217Z,365.63
2018-07-08T11:53:01.224Z,416.25
2018-07-08T11:54:01.228Z,472.50
2018-07-08T11:55:01.234Z,506.25
2018-07-08T11:56:01.243Z,545.63
2018-07-08T11:57:01.244Z,590.63
2018-07-08T11:58:01.244Z,540.00
2018-07-08T11:59:01.246Z,540.00
2018-07-08T12:00:01.255Z,596.25
2018-07-08T12:01:01.254Z,596.25
2018-07-08T12:02:01.257Z,596.25
2018-07-08T12:03:01.258Z,545.63
2018-07-08T12:04:01.263Z,450.00
2018-07-08T12:05:01.276Z,416.25
2018-07-08T12:06:01.273Z,365.63
2018-07-08T12:07:01.280Z,326.25
2018-07-08T12:08:01.283Z,343.13
2018-07-08T12:09:01.321Z,382.50
2018-07-08T12:10:01.456Z,427.50
2018-07-08T12:11:01.299Z,489.38
2018-07-08T12:12:01.299Z,523.13
2018-07-08T12:13:01.311Z,540.00
2018-07-08T12:14:01.306Z,540.00
2018-07-08T12:15:01.313Z,523.13
2018-07-08T12:16:01.317Z,506.25
2018-07-08T12:17:01.318Z,472.50
2018-07-08T12:18:01.326Z,450.00
2018-07-08T12:19:01.339Z,433.13
2018-07-08T12:20:01.337Z,438.75
2018-07-08T12:21:01.354Z,461.25
2018-07-08T12:22:01.341Z,483.75
2018-07-08T12:23:01.344Z,528.75
2018-07-08T12:24:01.349Z,517.50
2018-07-08T12:25:01.357Z,534.38
2018-07-08T12:26:01.358Z,500.63
2018-07-08T12:27:01.366Z,489.38
2018-07-08T12:28:01.372Z,421.88
2018-07-08T12:29:01.379Z,371.25
2018-07-08T12:30:01.376Z,331.88
2018-07-08T12:31:01.380Z,270.00
2018-07-08T12:32:01.388Z,281.25
2018-07-08T12:33:01.390Z,275.63
2018-07-08T12:34:01.395Z,270.00
2018-07-08T12:35:01.397Z,331.88
2018-07-08T12:36:01.407Z,281.25
2018-07-08T12:37:01.407Z,298.13
2018-07-08T12:38:01.411Z,208.13
2018-07-08T12:39:01.417Z,191.25
2018-07-08T12:40:01.423Z,241.88
2018-07-08T12:41:01.423Z,236.25